Time;durP1;ratioP1;P1;durP2;ratioP2;P2;SDS_P1;SDS_P2;PMS_P1;PMS_P2;Temp;Humidity;BMP_temperature;BMP_pressure;BME280_temperature;BME280_humidity;BME280_pressure;Samples;Min_cycle;Max_cycle;Signal;HPM_P1;HPM_P2
2022/11/16 00:01:03;;;;;;;;;;;11.00;99.90;;;;;;5112485;28;19919;-71
2022/11/16 00:03:30;;;;;;;;;;;11.30;99.90;;;;;;5112918;28;19919;-71
2022/11/16 00:05:56;;;;;;;;;;;11.10;99.90;;;;;;5113013;28;20408;-71
2022/11/16 00:08:22;;;;;;;;;;;11.20;99.90;;;;;;5112043;28;19930;-71
2022/11/16 00:10:47;;;;;;;;;;;11.00;99.90;;;;;;5095220;28;19919;-72
2022/11/16 00:13:13;;;;;;;;;;;11.20;99.90;;;;;;5113775;28;19920;-71
2022/11/16 00:15:38;;;;;;;;;;;11.30;99.90;;;;;;5111715;28;20308;-71
2022/11/16 00:18:04;;;;;;;;;;;11.10;99.90;;;;;;5113893;28;19980;-71
2022/11/16 00:20:29;;;;;;;;;;;11.30;99.90;;;;;;5111901;28;19995;-71
2022/11/16 00:22:55;;;;;;;;;;;11.10;99.90;;;;;;5114755;28;19926;-72
2022/11/16 00:25:20;;;;;;;;;;;11.20;99.90;;;;;;5116846;28;20424;-71
2022/11/16 00:27:46;;;;;;;;;;;11.10;99.90;;;;;;5117726;28;19931;-72
2022/11/16 00:30:11;;;;;;;;;;;11.20;99.90;;;;;;5118059;28;19920;-72
2022/11/16 00:32:37;;;;;;;;;;;11.40;99.90;;;;;;5105569;22;19924;-72
2022/11/16 00:35:02;;;;;;;;;;;11.20;99.90;;;;;;5071579;28;19955;-72
2022/11/16 00:37:28;;;;;;;;;;;11.30;99.90;;;;;;5053957;28;20374;-73
2022/11/16 00:39:53;;;;;;;;;;;11.20;99.90;;;;;;5070995;28;19928;-74
2022/11/16 00:42:19;;;;;;;;;;;11.10;99.90;;;;;;5072344;28;19920;-72
2022/11/16 00:44:44;;;;;;;;;;;11.10;99.90;;;;;;5071546;28;19921;-73
2022/11/16 00:47:09;;;;;;;;;;;11.00;99.90;;;;;;5072246;28;19924;-73
2022/11/16 00:49:37;;;;;;;;;;;11.50;99.90;;;;;;5070819;28;19920;-72
2022/11/16 00:52:03;;;;;;;;;;;11.40;99.90;;;;;;5070797;28;20544;-71
2022/11/16 00:54:28;;;;;;;;;;;11.10;99.90;;;;;;5069943;28;19927;-73
2022/11/16 00:56:53;;;;;;;;;;;11.30;99.90;;;;;;5070519;28;19931;-73
2022/11/16 00:59:19;;;;;;;;;;;11.30;99.90;;;;;;5070997;28;19943;-72
2022/11/16 01:01:44;;;;;;;;;;;11.20;99.90;;;;;;5070841;28;19943;-73
2022/11/16 01:04:10;;;;;;;;;;;11.30;99.90;;;;;;5070243;28;19920;-72
2022/11/16 01:06:35;;;;;;;;;;;11.30;99.90;;;;;;5053923;28;19928;-73
2022/11/16 01:09:01;;;;;;;;;;;11.20;99.90;;;;;;5053971;28;20062;-73
2022/11/16 01:14:11;;;;;;;;;;;11.40;99.90;;;;;;5070657;28;19925;-73
2022/11/16 01:16:36;;;;;;;;;;;11.50;99.90;;;;;;5070198;28;19920;-73
2022/11/16 01:19:02;;;;;;;;;;;11.30;99.90;;;;;;5070461;28;19927;-72
2022/11/16 01:21:28;;;;;;;;;;;11.30;99.90;;;;;;5071753;28;20118;-72
2022/11/16 01:23:54;;;;;;;;;;;11.10;99.90;;;;;;5069835;28;19925;-72
2022/11/16 01:26:20;;;;;;;;;;;11.20;99.90;;;;;;5070553;28;19928;-72
2022/11/16 01:28:45;;;;;;;;;;;11.30;99.90;;;;;;5070069;28;19925;-73
2022/11/16 01:31:11;;;;;;;;;;;11.50;99.90;;;;;;5070324;28;19924;-73
2022/11/16 01:33:36;;;;;;;;;;;11.40;99.90;;;;;;5070631;28;20038;-73
2022/11/16 01:36:02;;;;;;;;;;;11.50;99.90;;;;;;5069790;28;20392;-72
2022/11/16 01:38:27;;;;;;;;;;;11.40;99.90;;;;;;5070152;28;19927;-72
2022/11/16 01:40:53;;;;;;;;;;;11.20;99.90;;;;;;5070119;28;19921;-72
2022/11/16 01:43:22;;;;;;;;;;;11.20;99.90;;;;;;5070309;28;19927;-72
2022/11/16 01:45:48;;;;;;;;;;;11.30;99.90;;;;;;5052541;28;20464;-73
2022/11/16 01:48:16;;;;;;;;;;;11.10;99.90;;;;;;5071271;28;19928;-72
2022/11/16 01:50:42;;;;;;;;;;;11.30;99.90;;;;;;5075665;28;19927;-73
2022/11/16 01:53:09;;;;;;;;;;;11.20;99.90;;;;;;5057266;28;19928;-73
2022/11/16 01:55:35;;;;;;;;;;;11.20;99.90;;;;;;5073293;28;19920;-73
2022/11/16 01:58:01;;;;;;;;;;;11.10;99.90;;;;;;5057798;28;19921;-73
2022/11/16 02:00:27;;;;;;;;;;;11.00;99.90;;;;;;5073838;28;19943;-73
2022/11/16 02:02:52;;;;;;;;;;;11.30;99.90;;;;;;5075323;28;19921;-73
2022/11/16 02:05:19;;;;;;;;;;;11.20;99.90;;;;;;5073176;28;19931;-73
2022/11/16 02:10:56;;;;;;;;;;;11.30;99.90;;;;;;5073945;28;19928;-72
2022/11/16 02:13:33;;;;;;;;;;;11.30;99.90;;;;;;5067685;28;19927;-73
2022/11/16 02:16:03;;;;;;;;;;;11.50;99.90;;;;;;5074514;28;19978;-72
2022/11/16 02:18:38;;;;;;;;;;;11.30;99.90;;;;;;5074930;28;19960;-73
2022/11/16 02:21:19;;;;;;;;;;;11.10;99.90;;;;;;5073704;28;20052;-73
2022/11/16 02:23:50;;;;;;;;;;;11.40;99.90;;;;;;5073640;28;20336;-72
2022/11/16 02:26:16;;;;;;;;;;;11.40;99.90;;;;;;5074997;28;19951;-73
2022/11/16 02:28:44;;;;;;;;;;;11.50;99.90;;;;;;5073502;28;20382;-72
2022/11/16 02:31:13;;;;;;;;;;;11.40;99.90;;;;;;5073364;28;19920;-72
2022/11/16 02:33:39;;;;;;;;;;;11.30;99.90;;;;;;5073323;28;19927;-72
2022/11/16 02:36:08;;;;;;;;;;;11.10;99.90;;;;;;5073737;28;19928;-73
2022/11/16 02:38:35;;;;;;;;;;;11.50;99.90;;;;;;5056741;28;19920;-73
2022/11/16 02:41:04;;;;;;;;;;;11.50;99.90;;;;;;5074829;28;19924;-72
2022/11/16 02:43:34;;;;;;;;;;;11.20;99.90;;;;;;5056641;28;19920;-73
2022/11/16 02:46:02;;;;;;;;;;;11.40;99.90;;;;;;5073886;28;19920;-73
2022/11/16 02:48:30;;;;;;;;;;;11.50;99.90;;;;;;5073211;28;19932;-72
2022/11/16 02:50:55;;;;;;;;;;;11.40;99.90;;;;;;5072796;28;19974;-72
2022/11/16 02:53:21;;;;;;;;;;;11.30;99.90;;;;;;5074215;28;19920;-72
2022/11/16 02:55:47;;;;;;;;;;;11.50;99.90;;;;;;5073710;28;20307;-72
2022/11/16 02:58:16;;;;;;;;;;;11.30;99.90;;;;;;5074536;28;19974;-72
2022/11/16 03:00:51;;;;;;;;;;;11.70;99.90;;;;;;5072496;28;20302;-73
2022/11/16 03:03:37;;;;;;;;;;;11.50;99.90;;;;;;5056376;28;19978;-73
2022/11/16 03:06:14;;;;;;;;;;;11.20;99.90;;;;;;5073157;28;21562;-73
2022/11/16 03:08:42;;;;;;;;;;;11.50;99.90;;;;;;5072983;28;20019;-72
2022/11/16 03:13:59;;;;;;;;;;;11.50;99.90;;;;;;5072149;28;20024;-72
2022/11/16 03:16:33;;;;;;;;;;;11.60;99.90;;;;;;5073750;28;20425;-73
2022/11/16 03:19:00;;;;;;;;;;;11.60;99.90;;;;;;5056257;28;19944;-73
2022/11/16 03:21:42;;;;;;;;;;;11.40;99.90;;;;;;5072907;28;19921;-73
2022/11/16 03:24:08;;;;;;;;;;;11.30;99.90;;;;;;5067508;28;19974;-72
2022/11/16 03:26:41;;;;;;;;;;;11.50;99.90;;;;;;5072622;28;20575;-73
2022/11/16 03:29:09;;;;;;;;;;;11.40;99.90;;;;;;5073825;28;19932;-73
2022/11/16 03:31:38;;;;;;;;;;;11.70;99.90;;;;;;5072301;28;19971;-72
2022/11/16 03:34:07;;;;;;;;;;;11.60;99.90;;;;;;5071579;28;19929;-73
2022/11/16 03:36:34;;;;;;;;;;;11.40;99.90;;;;;;5073832;28;20003;-73
2022/11/16 03:39:06;;;;;;;;;;;11.40;99.90;;;;;;5072284;28;20003;-73
2022/11/16 03:41:34;;;;;;;;;;;11.60;99.90;;;;;;5055779;28;19920;-73
2022/11/16 03:43:59;;;;;;;;;;;11.50;99.90;;;;;;5071504;28;19943;-72
2022/11/16 03:46:25;;;;;;;;;;;11.70;99.90;;;;;;5072126;28;19924;-72
2022/11/16 03:48:55;;;;;;;;;;;11.60;99.90;;;;;;5055330;28;19955;-73
2022/11/16 03:51:20;;;;;;;;;;;11.60;99.90;;;;;;5073419;28;19920;-72
2022/11/16 03:53:46;;;;;;;;;;;11.50;99.90;;;;;;5055042;28;20011;-73
2022/11/16 03:56:11;;;;;;;;;;;11.70;99.90;;;;;;5072406;28;19920;-73
2022/11/16 03:58:37;;;;;;;;;;;11.40;99.90;;;;;;5055484;28;19920;-72
2022/11/16 04:01:02;;;;;;;;;;;11.50;99.90;;;;;;5072893;28;20425;-73
2022/11/16 04:03:28;;;;;;;;;;;12.10;99.90;;;;;;5054778;28;19920;-73
2022/11/16 04:25:18;;;;;;;;;;;11.40;99.90;;;;;;5070697;28;19957;-73
2022/11/16 04:37:47;;;;;;;;;;;11.60;99.90;;;;;;5071356;28;19974;-72
2022/11/16 04:38:42;;;;;;;;;;;11.40;99.90;;;;;;5071112;28;19939;-73
2022/11/16 04:42:13;;;;;;;;;;;11.60;99.90;;;;;;5053960;28;20299;-73
2022/11/16 04:43:53;;;;;;;;;;;11.50;99.90;;;;;;5050234;28;19962;-73
2022/11/16 04:47:18;;;;;;;;;;;11.70;99.90;;;;;;5052387;28;20326;-73
2022/11/16 04:49:13;;;;;;;;;;;11.60;99.90;;;;;;5050488;28;20015;-73
2022/11/16 04:51:38;;;;;;;;;;;11.60;99.90;;;;;;5054345;28;19979;-73
2022/11/16 04:54:04;;;;;;;;;;;11.70;99.90;;;;;;5071611;28;19929;-73
2022/11/16 04:56:29;;;;;;;;;;;11.60;99.90;;;;;;5071253;28;20449;-73
2022/11/16 04:58:54;;;;;;;;;;;11.50;99.90;;;;;;5072214;28;19963;-73
2022/11/16 05:02:06;;;;;;;;;;;11.50;99.90;;;;;;5070588;28;19974;-73
2022/11/16 05:04:08;;;;;;;;;;;11.80;99.90;;;;;;5069780;28;19920;-73
2022/11/16 05:06:34;;;;;;;;;;;12.00;99.90;;;;;;5070853;28;19921;-73
2022/11/16 05:08:59;;;;;;;;;;;11.60;99.90;;;;;;5072145;28;19931;-73
2022/11/16 05:11:25;;;;;;;;;;;11.50;99.90;;;;;;5070592;28;19973;-73
2022/11/16 05:13:50;;;;;;;;;;;11.50;99.90;;;;;;5071565;28;20294;-72
2022/11/16 05:16:16;;;;;;;;;;;11.80;99.90;;;;;;5072071;28;19928;-73
2022/11/16 05:18:41;;;;;;;;;;;11.30;99.90;;;;;;5070407;28;19921;-73
2022/11/16 05:21:07;;;;;;;;;;;11.60;99.90;;;;;;5053815;28;19927;-73
2022/11/16 05:26:16;;;;;;;;;;;11.20;99.90;;;;;;5074652;28;20013;-73
2022/11/16 05:28:42;;;;;;;;;;;11.80;99.90;;;;;;5074718;28;19990;-73
2022/11/16 05:31:07;;;;;;;;;;;11.70;99.90;;;;;;5074670;28;20352;-73
2022/11/16 05:33:33;;;;;;;;;;;11.60;99.90;;;;;;5074749;28;19920;-73
2022/11/16 05:35:58;;;;;;;;;;;11.70;99.90;;;;;;5074967;28;19920;-73
2022/11/16 05:38:24;;;;;;;;;;;11.60;99.90;;;;;;5074583;28;20394;-73
2022/11/16 05:40:50;;;;;;;;;;;11.70;99.90;;;;;;5074610;28;20030;-73
2022/11/16 05:43:15;;;;;;;;;;;11.60;99.90;;;;;;5074352;28;20007;-73
2022/11/16 05:45:41;;;;;;;;;;;11.40;99.90;;;;;;5057061;28;20420;-73
2022/11/16 05:48:07;;;;;;;;;;;11.60;99.90;;;;;;5075773;28;19928;-73
2022/11/16 05:50:32;;;;;;;;;;;11.50;99.90;;;;;;5073998;28;19920;-73
2022/11/16 05:52:58;;;;;;;;;;;11.50;99.90;;;;;;5057274;28;19929;-73
2022/11/16 05:55:23;;;;;;;;;;;11.60;99.90;;;;;;5074686;28;19963;-73
2022/11/16 05:57:49;;;;;;;;;;;11.60;99.90;;;;;;5075831;28;19924;-73
2022/11/16 06:00:15;;;;;;;;;;;11.60;99.90;;;;;;5075469;28;19920;-73
2022/11/16 06:02:40;;;;;;;;;;;11.40;99.90;;;;;;5074233;28;19974;-73
2022/11/16 06:05:06;;;;;;;;;;;11.50;99.90;;;;;;5056929;28;19927;-73
2022/11/16 06:07:32;;;;;;;;;;;11.70;99.90;;;;;;5056973;28;19932;-73
2022/11/16 06:09:58;;;;;;;;;;;11.70;99.90;;;;;;5072675;28;19925;-73
2022/11/16 06:12:23;;;;;;;;;;;11.60;99.90;;;;;;5073507;28;20007;-73
2022/11/16 06:14:49;;;;;;;;;;;11.50;99.90;;;;;;5066417;28;20026;-73
2022/11/16 06:17:14;;;;;;;;;;;11.60;99.90;;;;;;5061601;28;20007;-73
2022/11/16 06:19:40;;;;;;;;;;;11.50;99.90;;;;;;5061560;28;19921;-73
2022/11/16 06:22:06;;;;;;;;;;;11.10;99.90;;;;;;5073166;28;19928;-73
2022/11/16 06:24:31;;;;;;;;;;;11.50;99.90;;;;;;5073173;28;19963;-73
2022/11/16 06:26:57;;;;;;;;;;;11.20;99.90;;;;;;5065600;28;20360;-73
2022/11/16 06:29:22;;;;;;;;;;;11.30;99.90;;;;;;5074660;28;20594;-73
2022/11/16 06:31:48;;;;;;;;;;;11.30;99.90;;;;;;5068030;28;19928;-73
2022/11/16 06:34:13;;;;;;;;;;;11.30;99.90;;;;;;5093033;22;20019;-72
2022/11/16 06:36:39;;;;;;;;;;;11.30;99.90;;;;;;5074793;28;19928;-72
2022/11/16 06:39:04;;;;;;;;;;;11.40;99.90;;;;;;5072424;28;20378;-72
2022/11/16 06:41:31;;;;;;;;;;;12.00;99.90;;;;;;5074551;28;19966;-72
2022/11/16 06:43:56;;;;;;;;;;;11.40;99.90;;;;;;5072079;28;20329;-72
2022/11/16 06:46:23;;;;;;;;;;;11.30;99.90;;;;;;5072830;28;20011;-72
2022/11/16 06:48:49;;;;;;;;;;;11.20;99.90;;;;;;5073070;28;20385;-72
2022/11/16 06:51:14;;;;;;;;;;;11.40;99.90;;;;;;5072114;28;19975;-73
2022/11/16 06:53:42;;;;;;;;;;;11.10;99.90;;;;;;5072094;28;19973;-73
2022/11/16 06:56:11;;;;;;;;;;;11.40;99.90;;;;;;5062059;28;20341;-73
2022/11/16 06:58:36;;;;;;;;;;;11.00;99.90;;;;;;5056728;28;20276;-72
2022/11/16 07:01:09;;;;;;;;;;;11.20;99.90;;;;;;5066799;28;19932;-72
2022/11/16 07:03:35;;;;;;;;;;;11.20;99.90;;;;;;5058783;28;19960;-72
2022/11/16 07:06:05;;;;;;;;;;;11.50;99.90;;;;;;5058646;28;19978;-72
2022/11/16 07:08:31;;;;;;;;;;;11.30;99.90;;;;;;5061325;28;20649;-72
2022/11/16 07:11:00;;;;;;;;;;;11.40;99.90;;;;;;5067807;28;19926;-72
2022/11/16 07:13:25;;;;;;;;;;;11.30;99.90;;;;;;5066861;28;20283;-73
2022/11/16 07:15:50;;;;;;;;;;;11.20;99.90;;;;;;5066438;28;20126;-72
2022/11/16 07:18:16;;;;;;;;;;;11.20;99.90;;;;;;5066766;28;20084;-72
2022/11/16 07:20:41;;;;;;;;;;;11.30;99.90;;;;;;5057771;28;19932;-72
2022/11/16 07:23:07;;;;;;;;;;;11.30;99.90;;;;;;5036356;28;19925;-73
2022/11/16 07:25:33;;;;;;;;;;;11.50;99.90;;;;;;5052440;28;19975;-72
2022/11/16 07:27:58;;;;;;;;;;;11.40;99.90;;;;;;5051589;28;20036;-73
2022/11/16 07:30:24;;;;;;;;;;;11.40;99.90;;;;;;5058650;28;20356;-73
2022/11/16 07:32:49;;;;;;;;;;;11.40;99.90;;;;;;5056994;28;19935;-73
2022/11/16 07:35:15;;;;;;;;;;;11.50;99.90;;;;;;5061272;28;19921;-72
2022/11/16 07:37:40;;;;;;;;;;;11.30;99.90;;;;;;5068528;28;19963;-72
2022/11/16 07:40:06;;;;;;;;;;;11.30;99.90;;;;;;5074653;28;19952;-72
2022/11/16 07:42:32;;;;;;;;;;;11.10;99.90;;;;;;5061309;28;19928;-73
2022/11/16 07:44:57;;;;;;;;;;;11.20;99.90;;;;;;5076666;28;19930;-73
2022/11/16 07:47:23;;;;;;;;;;;11.60;99.90;;;;;;5072625;28;19928;-73
2022/11/16 07:49:48;;;;;;;;;;;11.10;99.90;;;;;;5063370;28;19920;-73
2022/11/16 07:52:14;;;;;;;;;;;11.20;99.90;;;;;;5066394;28;19966;-72
2022/11/16 07:54:39;;;;;;;;;;;11.70;99.90;;;;;;5070390;28;19924;-73
2022/11/16 07:57:05;;;;;;;;;;;;;;;;;;5069817;28;19928;-72
2022/11/16 07:59:31;;;;;;;;;;;11.30;99.90;;;;;;5072024;28;19987;-72
2022/11/16 08:01:57;;;;;;;;;;;11.00;99.90;;;;;;5070818;28;19967;-73
2022/11/16 08:04:23;;;;;;;;;;;11.40;99.90;;;;;;5068368;28;19966;-72
2022/11/16 08:06:51;;;;;;;;;;;11.50;99.90;;;;;;5071887;28;19920;-72
2022/11/16 08:09:17;;;;;;;;;;;11.40;99.90;;;;;;5052768;28;19970;-72
2022/11/16 08:11:42;;;;;;;;;;;11.30;99.90;;;;;;5070093;28;19920;-72
2022/11/16 08:14:07;;;;;;;;;;;11.10;99.90;;;;;;5070760;28;19920;-72
2022/11/16 08:16:33;;;;;;;;;;;11.20;99.90;;;;;;5053393;28;20022;-70
2022/11/16 08:18:59;;;;;;;;;;;11.20;99.90;;;;;;5072083;28;19920;-71
2022/11/16 08:21:25;;;;;;;;;;;11.20;99.90;;;;;;5070986;28;19921;-70
2022/11/16 08:23:50;;;;;;;;;;;11.20;99.90;;;;;;5053482;28;19957;-70
2022/11/16 08:26:17;;;;;;;;;;;11.50;99.90;;;;;;5070255;28;19973;-71
2022/11/16 08:28:43;;;;;;;;;;;11.50;99.90;;;;;;5053000;28;19931;-71
2022/11/16 08:31:11;;;;;;;;;;;11.40;99.90;;;;;;5069493;28;19924;-71
2022/11/16 08:33:37;;;;;;;;;;;11.20;99.90;;;;;;5069867;28;19939;-70
2022/11/16 08:36:06;;;;;;;;;;;11.50;99.90;;;;;;5043440;28;19920;-70
2022/11/16 08:38:31;;;;;;;;;;;11.50;99.90;;;;;;5055800;28;19931;-70
2022/11/16 08:40:57;;;;;;;;;;;11.00;99.90;;;;;;5070652;28;19924;-70
2022/11/16 08:43:22;;;;;;;;;;;11.20;99.90;;;;;;5071484;28;19920;-70
2022/11/16 08:45:48;;;;;;;;;;;11.40;99.90;;;;;;5053154;28;19927;-70
2022/11/16 08:48:13;;;;;;;;;;;11.50;99.90;;;;;;5070479;28;19931;-70
2022/11/16 08:50:39;;;;;;;;;;;11.40;99.90;;;;;;5070355;28;20305;-71
2022/11/16 08:53:04;;;;;;;;;;;11.30;99.90;;;;;;5071465;28;19920;-71
2022/11/16 08:55:30;;;;;;;;;;;11.40;99.90;;;;;;5063327;28;19921;-71
2022/11/16 08:57:55;;;;;;;;;;;11.40;99.90;;;;;;5052601;28;20387;-71
2022/11/16 09:00:21;;;;;;;;;;;11.50;99.90;;;;;;5070285;28;20016;-71
2022/11/16 09:02:46;;;;;;;;;;;11.50;99.90;;;;;;5070040;28;19971;-71
2022/11/16 09:05:12;;;;;;;;;;;11.90;99.90;;;;;;5052810;28;19921;-71
2022/11/16 09:07:38;;;;;;;;;;;11.60;99.90;;;;;;5069240;28;20367;-72
2022/11/16 09:10:04;;;;;;;;;;;11.40;99.90;;;;;;5070599;28;19927;-72
2022/11/16 09:12:30;;;;;;;;;;;11.50;99.90;;;;;;5069755;28;19921;-71
2022/11/16 09:14:55;;;;;;;;;;;11.50;99.90;;;;;;5049271;28;20020;-73
2022/11/16 09:17:21;;;;;;;;;;;12.10;99.90;;;;;;5050669;28;19925;-73
2022/11/16 09:19:46;;;;;;;;;;;11.60;99.90;;;;;;5057942;28;20045;-72
2022/11/16 09:22:12;;;;;;;;;;;11.80;99.90;;;;;;5071048;28;19947;-73
2022/11/16 09:24:37;;;;;;;;;;;11.60;99.90;;;;;;5071567;28;19920;-72
2022/11/16 09:27:03;;;;;;;;;;;11.90;99.90;;;;;;5070061;28;19970;-73
2022/11/16 09:29:28;;;;;;;;;;;11.80;99.90;;;;;;5073566;28;19928;-74
2022/11/16 09:31:54;;;;;;;;;;;11.60;99.90;;;;;;5071693;28;19921;-74
2022/11/16 09:34:20;;;;;;;;;;;11.90;99.90;;;;;;5053366;28;20298;-73
2022/11/16 09:36:45;;;;;;;;;;;12.10;99.90;;;;;;5074530;28;19920;-73
2022/11/16 09:39:11;;;;;;;;;;;12.10;99.90;;;;;;5065763;28;19925;-73
2022/11/16 09:41:40;;;;;;;;;;;12.20;99.90;;;;;;5036440;28;20388;-73
2022/11/16 09:44:24;;;;;;;;;;;12.20;99.90;;;;;;5033663;28;19928;-74
2022/11/16 09:46:55;;;;;;;;;;;12.10;99.90;;;;;;5036253;28;19921;-73
2022/11/16 09:49:40;;;;;;;;;;;12.10;99.90;;;;;;5052526;28;19963;-73
2022/11/16 09:52:13;;;;;;;;;;;12.00;99.90;;;;;;5069761;28;20310;-73
2022/11/16 09:54:41;;;;;;;;;;;12.00;99.90;;;;;;5071344;28;19999;-73
2022/11/16 09:57:09;;;;;;;;;;;12.20;99.90;;;;;;5071482;28;19942;-74
2022/11/16 09:59:37;;;;;;;;;;;13.30;99.90;;;;;;5073350;28;19921;-73
2022/11/16 10:02:11;;;;;;;;;;;;;;;;;;5082202;28;19928;-73
2022/11/16 10:04:45;;;;;;;;;;;12.60;99.90;;;;;;5078404;28;19943;-73
2022/11/16 10:07:26;;;;;;;;;;;12.80;99.90;;;;;;5077939;28;19931;-73
2022/11/16 10:09:54;;;;;;;;;;;12.30;99.90;;;;;;5075698;28;20287;-73
2022/11/16 10:12:25;;;;;;;;;;;12.40;99.90;;;;;;5076229;28;19924;-73
2022/11/16 10:14:51;;;;;;;;;;;12.60;99.90;;;;;;5077076;28;19952;-73
2022/11/16 10:17:16;;;;;;;;;;;12.40;99.90;;;;;;5078001;28;19921;-73
2022/11/16 10:20:00;;;;;;;;;;;12.40;99.90;;;;;;5074688;28;19920;-73
2022/11/16 10:22:36;;;;;;;;;;;12.50;99.90;;;;;;5074409;28;20342;-73
2022/11/16 10:25:07;;;;;;;;;;;12.40;99.90;;;;;;5062930;28;19928;-74
2022/11/16 10:27:51;;;;;;;;;;;13.30;99.90;;;;;;5075327;28;19924;-73
2022/11/16 10:30:18;;;;;;;;;;;12.40;99.90;;;;;;5057624;28;19924;-72
2022/11/16 10:32:52;;;;;;;;;;;12.40;99.90;;;;;;5073824;28;19920;-72
2022/11/16 10:35:21;;;;;;;;;;;12.30;99.90;;;;;;5075549;28;20305;-71
2022/11/16 10:37:50;;;;;;;;;;;12.40;99.90;;;;;;5074247;28;20007;-72
2022/11/16 10:40:39;;;;;;;;;;;12.50;99.90;;;;;;5061546;28;19960;-74
2022/11/16 10:43:15;;;;;;;;;;;12.60;99.90;;;;;;5060321;28;19927;-74
2022/11/16 10:45:46;;;;;;;;;;;12.70;99.90;;;;;;5055313;28;20044;-75
2022/11/16 10:48:24;;;;;;;;;;;12.60;99.90;;;;;;5054967;28;19929;-74
2022/11/16 10:50:50;;;;;;;;;;;12.60;99.90;;;;;;5052996;28;19924;-72
2022/11/16 10:53:27;;;;;;;;;;;12.40;99.90;;;;;;5054084;28;19921;-74
2022/11/16 10:56:01;;;;;;;;;;;12.40;99.90;;;;;;5072086;28;19920;-73
2022/11/16 10:58:47;;;;;;;;;;;12.50;99.90;;;;;;5073125;28;19965;-73
2022/11/16 11:01:12;;;;;;;;;;;13.20;99.90;;;;;;5073215;28;20420;-73
2022/11/16 11:03:38;;;;;;;;;;;12.60;99.90;;;;;;5055673;28;19964;-73
2022/11/16 11:06:03;;;;;;;;;;;12.70;99.90;;;;;;5052748;28;19921;-73
2022/11/16 11:08:29;;;;;;;;;;;12.90;99.90;;;;;;5060171;28;20281;-73
2022/11/16 11:12:36;;;;;;;;;;;12.70;99.90;;;;;;5055875;28;20386;-73
2022/11/16 11:14:01;;;;;;;;;;;12.60;99.90;;;;;;5065733;28;19931;-73
2022/11/16 11:16:27;;;;;;;;;;;12.90;99.90;;;;;;5072403;28;19920;-73
2022/11/16 11:18:52;;;;;;;;;;;12.70;99.90;;;;;;5072762;28;19931;-73
2022/11/16 11:21:19;;;;;;;;;;;12.70;99.90;;;;;;5072544;28;19973;-73
2022/11/16 11:23:50;;;;;;;;;;;12.80;99.90;;;;;;5056432;28;19921;-73
2022/11/16 11:26:35;;;;;;;;;;;12.70;99.90;;;;;;5055316;28;20488;-73
2022/11/16 11:29:01;;;;;;;;;;;;;;;;;;5055582;28;19929;-73
2022/11/16 11:31:42;;;;;;;;;;;12.80;99.90;;;;;;5066608;28;19922;-73
2022/11/16 11:34:08;;;;;;;;;;;12.60;99.90;;;;;;5051597;28;19920;-73
2022/11/16 11:36:46;;;;;;;;;;;12.60;99.90;;;;;;5052376;28;19927;-73
2022/11/16 11:39:11;;;;;;;;;;;12.70;99.90;;;;;;5049148;28;19931;-73
2022/11/16 11:41:43;;;;;;;;;;;12.60;99.90;;;;;;5072432;28;20317;-73
2022/11/16 11:44:12;;;;;;;;;;;12.60;99.90;;;;;;5058648;28;19924;-73
2022/11/16 11:46:40;;;;;;;;;;;12.70;99.90;;;;;;5072405;28;19921;-73
2022/11/16 11:49:15;;;;;;;;;;;12.90;99.90;;;;;;5067053;28;19936;-73
2022/11/16 11:51:42;;;;;;;;;;;12.70;99.90;;;;;;5045890;28;20404;-73
2022/11/16 11:54:30;;;;;;;;;;;12.90;99.90;;;;;;5062946;28;20279;-73
2022/11/16 11:56:55;;;;;;;;;;;12.90;99.90;;;;;;5063431;28;19970;-73
2022/11/16 11:59:22;;;;;;;;;;;12.90;99.90;;;;;;5067079;28;19932;-72
2022/11/16 12:01:48;;;;;;;;;;;12.60;99.90;;;;;;5058010;28;20395;-73
2022/11/16 12:04:23;;;;;;;;;;;13.00;99.90;;;;;;5064573;28;19935;-72
2022/11/16 12:06:55;;;;;;;;;;;12.90;99.90;;;;;;5060962;28;19932;-72
2022/11/16 12:09:28;;;;;;;;;;;12.50;99.90;;;;;;5066493;28;19925;-72
2022/11/16 12:12:00;;;;;;;;;;;12.40;99.90;;;;;;5064153;28;20408;-72
2022/11/16 12:14:32;;;;;;;;;;;12.40;99.90;;;;;;5064260;28;19997;-72
2022/11/16 12:16:57;;;;;;;;;;;12.20;99.90;;;;;;5070923;28;19924;-72
2022/11/16 12:19:42;;;;;;;;;;;12.20;99.90;;;;;;5053698;28;19924;-72
2022/11/16 12:22:24;;;;;;;;;;;12.60;99.90;;;;;;5077297;28;19943;-71
2022/11/16 12:25:09;;;;;;;;;;;12.50;99.90;;;;;;5080628;28;20268;-74
2022/11/16 12:27:34;;;;;;;;;;;12.60;99.90;;;;;;5079574;28;20382;-74
2022/11/16 12:30:00;;;;;;;;;;;12.50;99.90;;;;;;5073127;28;19928;-74
2022/11/16 12:35:02;;;;;;;;;;;12.70;99.90;;;;;;5026418;28;20234;-74
2022/11/16 12:37:48;;;;;;;;;;;12.30;99.90;;;;;;5011968;28;19921;-74
2022/11/16 12:40:13;;;;;;;;;;;12.50;99.90;;;;;;5031564;28;19925;-74
2022/11/16 12:42:51;;;;;;;;;;;12.50;99.90;;;;;;5030363;28;19932;-74
2022/11/16 12:45:22;;;;;;;;;;;12.40;99.90;;;;;;5009364;28;19925;-74
2022/11/16 12:48:10;;;;;;;;;;;12.60;99.90;;;;;;5010760;28;19925;-74
2022/11/16 12:50:44;;;;;;;;;;;12.60;99.90;;;;;;5009777;28;19926;-74
2022/11/16 12:53:15;;;;;;;;;;;12.40;99.90;;;;;;5010223;28;19932;-74
2022/11/16 12:55:50;;;;;;;;;;;12.40;99.90;;;;;;5008700;28;19922;-74
2022/11/16 12:58:33;;;;;;;;;;;12.50;99.90;;;;;;5009583;28;19972;-75
2022/11/16 13:01:06;;;;;;;;;;;12.50;99.90;;;;;;5008502;28;19934;-73
2022/11/16 13:03:50;;;;;;;;;;;12.40;99.90;;;;;;5010066;28;19921;-74
2022/11/16 13:06:23;;;;;;;;;;;12.20;99.90;;;;;;5010466;28;19973;-74
2022/11/16 13:09:11;;;;;;;;;;;12.30;99.90;;;;;;5009308;28;19926;-74
2022/11/16 13:11:39;;;;;;;;;;;12.40;99.90;;;;;;4991064;28;20364;-74
2022/11/16 13:14:06;;;;;;;;;;;12.40;99.90;;;;;;4990926;28;19980;-73
2022/11/16 13:16:32;;;;;;;;;;;12.40;99.90;;;;;;5004819;28;19926;-73
2022/11/16 13:18:59;;;;;;;;;;;12.40;99.90;;;;;;5011272;28;19932;-73
2022/11/16 13:21:33;;;;;;;;;;;12.50;99.90;;;;;;5010643;28;19949;-73
2022/11/16 13:24:06;;;;;;;;;;;12.20;99.90;;;;;;4992544;28;19922;-74
2022/11/16 13:26:35;;;;;;;;;;;12.40;99.90;;;;;;5009270;28;20272;-73
2022/11/16 13:29:08;;;;;;;;;;;12.30;99.90;;;;;;5009341;28;19926;-74
2022/11/16 13:31:38;;;;;;;;;;;12.30;99.90;;;;;;4993210;28;19929;-74
2022/11/16 13:34:12;;;;;;;;;;;12.40;99.90;;;;;;5009112;28;20327;-73
2022/11/16 13:36:42;;;;;;;;;;;12.40;99.90;;;;;;4993435;28;19976;-73
2022/11/16 13:39:08;;;;;;;;;;;12.50;99.90;;;;;;5009731;28;20291;-73
2022/11/16 13:41:41;;;;;;;;;;;12.50;99.90;;;;;;5010503;28;19922;-73
2022/11/16 13:44:12;;;;;;;;;;;12.40;99.90;;;;;;5009545;28;20028;-73
2022/11/16 13:46:44;;;;;;;;;;;12.40;99.90;;;;;;5012084;28;19922;-73
2022/11/16 13:49:19;;;;;;;;;;;12.60;99.90;;;;;;5013560;28;19929;-73
2022/11/16 13:51:55;;;;;;;;;;;12.50;99.90;;;;;;5012993;28;19928;-73
2022/11/16 13:54:32;;;;;;;;;;;12.40;99.90;;;;;;5012231;28;20443;-73
2022/11/16 13:56:59;;;;;;;;;;;12.50;99.90;;;;;;5025620;28;19925;-73
2022/11/16 13:59:27;;;;;;;;;;;12.40;99.90;;;;;;5012641;28;19996;-73
2022/11/16 14:02:00;;;;;;;;;;;12.50;99.90;;;;;;5012830;28;19928;-73
2022/11/16 14:04:34;;;;;;;;;;;12.30;99.90;;;;;;5004328;28;20299;-73
2022/11/16 14:06:59;;;;;;;;;;;12.10;99.90;;;;;;4997505;28;19925;-73
2022/11/16 14:09:44;;;;;;;;;;;12.20;99.90;;;;;;5014857;28;19925;-73
2022/11/16 14:12:28;;;;;;;;;;;12.30;99.90;;;;;;4995226;28;19980;-73
2022/11/16 14:15:14;;;;;;;;;;;12.50;99.90;;;;;;5011792;28;20284;-73
2022/11/16 14:17:53;;;;;;;;;;;12.40;99.90;;;;;;5013150;28;19926;-73
2022/11/16 14:20:29;;;;;;;;;;;12.50;99.90;;;;;;5013095;28;19922;-73
2022/11/16 14:23:03;;;;;;;;;;;12.10;99.90;;;;;;4996152;28;19925;-73
2022/11/16 14:25:32;;;;;;;;;;;12.30;99.90;;;;;;5012306;28;19921;-73
2022/11/16 14:28:10;;;;;;;;;;;12.20;99.90;;;;;;4995823;28;19936;-73
2022/11/16 14:30:53;;;;;;;;;;;12.10;99.90;;;;;;5014069;28;20288;-73
2022/11/16 14:33:28;;;;;;;;;;;12.20;99.90;;;;;;4995397;28;19922;-73
2022/11/16 14:35:54;;;;;;;;;;;12.10;99.90;;;;;;5012832;28;19921;-73
2022/11/16 14:38:31;;;;;;;;;;;11.90;99.90;;;;;;5013736;28;19925;-73
2022/11/16 14:40:57;;;;;;;;;;;12.10;99.90;;;;;;5012867;28;19968;-73
2022/11/16 14:43:28;;;;;;;;;;;12.00;99.90;;;;;;5012887;28;19921;-73
2022/11/16 14:45:59;;;;;;;;;;;11.80;99.90;;;;;;5012625;28;20366;-73
2022/11/16 14:48:25;;;;;;;;;;;12.10;99.90;;;;;;5012207;28;19980;-73
2022/11/16 14:51:05;;;;;;;;;;;12.20;99.90;;;;;;5013558;28;19926;-73
2022/11/16 14:53:31;;;;;;;;;;;11.70;99.90;;;;;;5012142;28;19984;-73
2022/11/16 14:56:08;;;;;;;;;;;11.80;99.90;;;;;;4995363;28;19925;-73
2022/11/16 14:58:34;;;;;;;;;;;11.80;99.90;;;;;;5012752;28;19972;-73
2022/11/16 15:01:20;;;;;;;;;;;11.60;99.90;;;;;;5013136;28;19929;-73
2022/11/16 15:03:54;;;;;;;;;;;11.50;99.90;;;;;;5012116;28;20295;-73
2022/11/16 15:06:20;;;;;;;;;;;11.50;99.90;;;;;;4996171;28;20384;-73
2022/11/16 15:08:53;;;;;;;;;;;11.50;99.90;;;;;;5012492;28;19933;-72
2022/11/16 15:12:40;;;;;;;;;;;11.50;99.90;;;;;;5011362;28;19925;-73